createdAt,value
2024-04-09T00:02:05.615Z,11.53
2024-04-09T00:04:32.899Z,11.44
2024-04-09T00:07:00.185Z,11.40
2024-04-09T00:09:30.683Z,11.44
2024-04-09T00:11:59.870Z,11.44
2024-04-09T00:14:27.026Z,11.40
2024-04-09T00:16:57.240Z,11.36
2024-04-09T00:19:25.876Z,11.35
2024-04-09T00:21:53.544Z,11.33
2024-04-09T00:24:20.727Z,11.32
2024-04-09T00:26:48.178Z,11.33
2024-04-09T00:29:15.572Z,11.38
2024-04-09T00:31:42.632Z,11.34
2024-04-09T00:34:12.049Z,11.33
2024-04-09T00:36:39.655Z,11.23
2024-04-09T00:39:20.222Z,11.24
2024-04-09T00:41:48.546Z,11.18
2024-04-09T00:44:15.810Z,11.11
2024-04-09T00:46:44.387Z,11.06
2024-04-09T00:49:15.299Z,11.03
2024-04-09T00:51:46.379Z,11.05
2024-04-09T00:54:13.981Z,11.10
2024-04-09T00:56:42.007Z,11.16
2024-04-09T00:59:10.802Z,11.18
2024-04-09T01:01:37.927Z,11.12
2024-04-09T01:04:05.102Z,11.07
2024-04-09T01:06:32.884Z,11.03
2024-04-09T01:09:00.509Z,11.02
2024-04-09T01:11:27.668Z,11.01
2024-04-09T01:13:54.692Z,10.98
2024-04-09T01:16:22.990Z,10.98
2024-04-09T01:18:50.388Z,11.05
2024-04-09T01:21:17.599Z,11.04
2024-04-09T01:23:44.717Z,11.02
2024-04-09T01:26:11.782Z,10.94
2024-04-09T01:28:40.998Z,10.80
2024-04-09T01:31:13.433Z,10.67
2024-04-09T01:33:41.068Z,10.60
2024-04-09T01:36:11.605Z,10.59
2024-04-09T01:38:39.629Z,10.61
2024-04-09T01:41:06.757Z,10.64
2024-04-09T01:43:33.863Z,10.68
2024-04-09T01:46:00.953Z,10.66
2024-04-09T01:48:28.207Z,10.60
2024-04-09T01:50:55.352Z,10.56
2024-04-09T01:53:23.601Z,10.54
2024-04-09T01:56:00.233Z,10.52
2024-04-09T01:58:27.333Z,10.47
2024-04-09T02:00:54.549Z,10.44
2024-04-09T02:03:22.445Z,10.42
2024-04-09T02:05:50.641Z,10.28
2024-04-09T02:08:17.722Z,10.20
2024-04-09T02:10:44.776Z,10.17
2024-04-09T02:13:11.844Z,10.12
2024-04-09T02:15:39.344Z,10.05
2024-04-09T02:18:06.822Z,9.97
2024-04-09T02:20:35.130Z,9.94
2024-04-09T02:23:02.228Z,9.99
2024-04-09T02:25:29.304Z,9.97
2024-04-09T02:27:56.337Z,9.87
2024-04-09T02:30:23.435Z,9.84
2024-04-09T02:32:50.559Z,9.87
2024-04-09T02:35:21.390Z,9.85
2024-04-09T02:37:48.646Z,9.74
2024-04-09T02:40:18.866Z,9.69
2024-04-09T02:42:46.307Z,9.68
2024-04-09T02:45:13.496Z,9.63
2024-04-09T02:47:41.148Z,9.62
2024-04-09T02:50:08.489Z,9.57
2024-04-09T02:52:35.667Z,9.53
2024-04-09T02:55:03.168Z,9.60
2024-04-09T02:57:32.526Z,9.50
2024-04-09T03:00:02.651Z,9.42
2024-04-09T03:02:30.684Z,9.38
2024-04-09T03:04:57.744Z,9.37
2024-04-09T03:07:24.829Z,9.40
2024-04-09T03:09:51.847Z,9.48
2024-04-09T03:12:19.176Z,9.53
2024-04-09T03:14:46.279Z,9.56
2024-04-09T03:17:13.345Z,9.46
2024-04-09T03:19:41.686Z,9.42
2024-04-09T03:22:08.780Z,9.40
2024-04-09T03:24:36.365Z,9.37
2024-04-09T03:27:03.719Z,9.33
2024-04-09T03:29:30.920Z,9.32
2024-04-09T03:31:58.390Z,9.30
2024-04-09T03:34:25.501Z,9.26
2024-04-09T03:36:52.791Z,9.20
2024-04-09T03:39:20.829Z,9.14
2024-04-09T03:41:47.914Z,9.07
2024-04-09T03:44:15.281Z,9.03
2024-04-09T03:46:43.488Z,8.97
2024-04-09T03:49:11.503Z,8.96
2024-04-09T03:51:38.735Z,8.91
2024-04-09T03:54:05.906Z,8.91
2024-04-09T03:56:33.114Z,8.91
2024-04-09T03:59:00.604Z,8.91
2024-04-09T04:01:27.668Z,8.92
2024-04-09T04:03:54.877Z,8.89
2024-04-09T04:06:22.136Z,8.88
2024-04-09T04:08:49.279Z,8.91
2024-04-09T04:11:16.486Z,8.95
2024-04-09T04:13:43.601Z,8.97
2024-04-09T04:16:13.816Z,8.99
2024-04-09T04:18:44.658Z,9.05
2024-04-09T04:21:16.600Z,9.08
2024-04-09T04:23:44.703Z,9.10
2024-04-09T04:26:15.127Z,9.11
2024-04-09T04:28:43.695Z,9.12
2024-04-09T04:31:16.432Z,9.13
2024-04-09T04:33:45.463Z,9.21
2024-04-09T04:36:16.417Z,9.28
2024-04-09T04:38:45.356Z,9.38
2024-04-09T04:41:12.891Z,9.47
2024-04-09T04:43:40.992Z,9.58
2024-04-09T04:46:08.909Z,9.69
2024-04-09T04:48:36.770Z,9.76
2024-04-09T04:51:05.040Z,9.86
2024-04-09T04:53:41.293Z,10.00
2024-04-09T04:56:08.483Z,10.06
2024-04-09T04:58:36.133Z,10.14
2024-04-09T05:01:03.377Z,10.25
2024-04-09T05:03:30.618Z,10.35
2024-04-09T05:06:06.485Z,10.41
2024-04-09T05:08:34.292Z,10.44
2024-04-09T05:11:08.184Z,10.47
2024-04-09T05:13:35.310Z,10.52
2024-04-09T05:16:02.507Z,10.52
2024-04-09T05:18:29.948Z,10.57
2024-04-09T05:20:57.232Z,10.64
2024-04-09T05:23:24.466Z,10.68
2024-04-09T05:25:51.916Z,10.73
2024-04-09T05:28:19.021Z,10.80
2024-04-09T05:30:46.655Z,10.89
2024-04-09T05:33:14.039Z,11.03
2024-04-09T05:35:42.366Z,11.14
2024-04-09T05:38:09.604Z,11.31
2024-04-09T05:40:37.443Z,11.49
2024-04-09T05:43:04.827Z,11.65
2024-04-09T05:45:38.404Z,11.83
2024-04-09T05:48:06.798Z,11.97
2024-04-09T05:50:34.139Z,12.06
2024-04-09T05:53:01.231Z,12.15
2024-04-09T05:55:28.308Z,12.26
2024-04-09T05:57:58.451Z,12.33
2024-04-09T06:00:25.791Z,12.44
2024-04-09T06:02:55.120Z,12.60
2024-04-09T06:05:22.260Z,12.46
2024-04-09T06:07:49.870Z,12.49
2024-04-09T06:10:19.536Z,12.60
2024-04-09T06:12:46.959Z,12.56
2024-04-09T06:15:14.467Z,12.67
2024-04-09T06:17:42.116Z,12.70
2024-04-09T06:20:11.450Z,12.73
2024-04-09T06:22:38.825Z,12.83
2024-04-09T06:25:05.935Z,12.88
2024-04-09T06:27:34.344Z,12.92
2024-04-09T06:30:01.633Z,13.01
2024-04-09T06:32:29.370Z,13.17
2024-04-09T06:34:56.561Z,13.27
2024-04-09T06:37:24.609Z,13.37
2024-04-09T06:40:01.810Z,13.36
2024-04-09T06:42:29.196Z,13.39
2024-04-09T06:44:56.406Z,13.41
2024-04-09T06:47:23.812Z,13.60
2024-04-09T06:49:51.435Z,13.63
2024-04-09T06:52:20.975Z,13.77
2024-04-09T06:54:50.046Z,13.88
2024-04-09T06:57:17.331Z,13.90
2024-04-09T06:59:44.473Z,13.96
2024-04-09T07:02:12.162Z,14.06
2024-04-09T07:04:39.687Z,14.14
2024-04-09T07:07:10.797Z,14.24
2024-04-09T07:09:38.271Z,14.35
2024-04-09T07:12:05.853Z,14.36
2024-04-09T07:14:33.211Z,14.43
2024-04-09T07:17:00.401Z,14.47
2024-04-09T07:19:28.520Z,14.70
2024-04-09T07:21:55.731Z,14.66
2024-04-09T07:24:23.603Z,14.74
2024-04-09T07:26:50.695Z,14.91
2024-04-09T07:29:19.893Z,15.13
2024-04-09T07:31:47.166Z,15.11
2024-04-09T07:34:14.261Z,15.23
2024-04-09T07:36:41.422Z,15.37
2024-04-09T07:39:09.594Z,15.52
2024-04-09T07:41:36.838Z,15.68
2024-04-09T07:44:04.157Z,15.88
2024-04-09T07:46:31.276Z,15.98
2024-04-09T07:49:01.780Z,16.02
2024-04-09T07:51:29.837Z,16.14
2024-04-09T07:53:57.466Z,16.26
2024-04-09T07:56:25.751Z,16.30
2024-04-09T07:58:52.888Z,16.35
2024-04-09T08:01:19.968Z,16.41
2024-04-09T08:03:50.718Z,16.50
2024-04-09T08:06:18.085Z,16.59
2024-04-09T08:08:47.600Z,16.75
2024-04-09T08:11:16.450Z,16.89
2024-04-09T08:13:44.071Z,17.10
2024-04-09T08:16:12.938Z,17.19
2024-04-09T08:18:40.743Z,17.28
2024-04-09T08:21:11.355Z,17.19
2024-04-09T08:23:38.588Z,17.28
2024-04-09T08:26:06.568Z,17.48
2024-04-09T08:28:34.600Z,17.68
2024-04-09T08:31:07.061Z,17.73
2024-04-09T08:33:36.065Z,17.73
2024-04-09T08:36:03.589Z,17.77
2024-04-09T08:38:30.924Z,17.90
2024-04-09T08:40:58.909Z,17.97
2024-04-09T08:43:28.669Z,18.10
2024-04-09T08:45:58.856Z,18.27
2024-04-09T08:48:27.381Z,18.34
2024-04-09T08:50:57.791Z,18.49
2024-04-09T08:53:30.613Z,18.74
2024-04-09T08:56:08.019Z,18.92
2024-04-09T08:58:35.518Z,19.09
2024-04-09T09:01:04.607Z,19.25
2024-04-09T09:03:32.237Z,19.42
2024-04-09T09:06:03.243Z,19.54
2024-04-09T09:08:40.478Z,19.55
2024-04-09T09:11:08.688Z,19.63
2024-04-09T09:13:35.906Z,19.82
2024-04-09T09:16:04.165Z,19.95
2024-04-09T09:18:31.580Z,20.12
2024-04-09T09:21:03.314Z,20.26
2024-04-09T09:23:31.237Z,20.55
2024-04-09T09:25:58.994Z,20.76
2024-04-09T09:28:26.681Z,20.76
2024-04-09T09:31:00.418Z,20.88
2024-04-09T09:33:31.449Z,21.07
2024-04-09T09:35:59.550Z,21.13
2024-04-09T09:38:30.444Z,21.28
2024-04-09T09:40:58.810Z,21.38
2024-04-09T09:43:27.969Z,21.51
2024-04-09T09:45:55.866Z,21.66
2024-04-09T09:48:26.489Z,21.76
2024-04-09T09:50:54.656Z,21.95
2024-04-09T09:53:25.390Z,22.18
2024-04-09T09:55:55.627Z,22.44
2024-04-09T09:58:29.008Z,22.67
2024-04-09T10:00:58.997Z,22.87
2024-04-09T10:03:27.756Z,23.06
2024-04-09T10:05:55.519Z,23.28
2024-04-09T10:08:23.625Z,23.53
2024-04-09T10:10:54.015Z,23.66
2024-04-09T10:13:27.541Z,23.82
2024-04-09T10:15:59.352Z,24.02
2024-04-09T10:18:33.847Z,24.17
2024-04-09T10:21:01.278Z,24.34
2024-04-09T10:23:28.438Z,24.48
2024-04-09T10:26:02.226Z,24.67
2024-04-09T10:28:34.091Z,24.92
2024-04-09T10:31:04.589Z,25.09
2024-04-09T10:33:35.299Z,25.10
2024-04-09T10:36:07.739Z,25.12
2024-04-09T10:38:37.911Z,25.31
2024-04-09T10:41:05.763Z,25.63
2024-04-09T10:43:38.310Z,25.97
2024-04-09T10:46:13.213Z,26.30
2024-04-09T10:48:43.353Z,26.43
2024-04-09T10:51:12.223Z,26.53
2024-04-09T10:53:42.435Z,26.79
2024-04-09T10:56:10.320Z,27.08
2024-04-09T10:58:41.609Z,27.27
2024-04-09T11:01:14.977Z,27.47
2024-04-09T11:03:43.154Z,27.63
2024-04-09T11:06:15.074Z,27.72
2024-04-09T11:08:42.370Z,27.95
2024-04-09T11:11:10.478Z,28.23
2024-04-09T11:13:42.270Z,28.51
2024-04-09T11:16:18.239Z,28.60
2024-04-09T11:18:59.465Z,28.67
2024-04-09T11:21:29.405Z,28.81
2024-04-09T11:23:57.528Z,29.04
2024-04-09T11:26:25.269Z,29.41
2024-04-09T11:28:53.808Z,29.75
2024-04-09T11:31:22.660Z,29.86
2024-04-09T11:33:53.044Z,30.08
2024-04-09T11:36:27.484Z,30.47
2024-04-09T11:39:00.224Z,30.74
2024-04-09T11:41:27.908Z,30.83
2024-04-09T11:44:00.563Z,30.90
2024-04-09T11:46:28.285Z,31.06
2024-04-09T11:48:58.561Z,31.35
2024-04-09T11:51:28.064Z,31.68
2024-04-09T11:53:55.229Z,31.64
2024-04-09T11:56:22.413Z,31.78
2024-04-09T11:58:49.574Z,31.98
2024-04-09T12:01:18.362Z,32.25
2024-04-09T12:03:45.819Z,32.43
2024-04-09T12:06:14.199Z,32.37
2024-04-09T12:08:41.634Z,32.43
2024-04-09T12:11:10.032Z,32.34
2024-04-09T12:13:37.673Z,32.42
2024-04-09T12:16:05.255Z,32.60
2024-04-09T12:18:33.524Z,32.95
2024-04-09T12:21:00.946Z,33.20
2024-04-09T12:23:28.011Z,33.18
2024-04-09T12:25:55.590Z,33.12
2024-04-09T12:28:22.806Z,32.91
2024-04-09T12:30:50.216Z,32.93
2024-04-09T12:33:20.809Z,33.05
2024-04-09T12:35:48.078Z,33.11
2024-04-09T12:38:15.860Z,33.04
2024-04-09T12:40:43.188Z,32.84
2024-04-09T12:43:13.257Z,32.78
2024-04-09T12:45:40.246Z,33.02
2024-04-09T12:48:07.976Z,33.31
2024-04-09T12:50:35.554Z,33.41
2024-04-09T12:53:02.828Z,33.63
2024-04-09T12:55:30.169Z,33.84
2024-04-09T12:57:57.386Z,34.12
2024-04-09T13:00:48.745Z,34.36
2024-04-09T13:03:16.085Z,34.60
2024-04-09T13:05:43.817Z,34.78
2024-04-09T13:08:11.238Z,34.82
2024-04-09T13:10:38.827Z,34.97
2024-04-09T13:13:06.462Z,34.97
2024-04-09T13:16:47.789Z,35.13
2024-04-09T13:18:21.368Z,34.86
2024-04-09T13:20:48.556Z,34.50
2024-04-09T13:23:16.334Z,34.52
2024-04-09T13:25:44.076Z,34.61
2024-04-09T13:28:11.397Z,34.64
2024-04-09T13:30:39.629Z,34.74
2024-04-09T13:33:06.736Z,34.90
2024-04-09T13:35:34.453Z,35.18
2024-04-09T13:38:02.212Z,35.37
2024-04-09T13:40:33.485Z,35.53
2024-04-09T13:43:00.743Z,35.70
2024-04-09T13:45:30.711Z,35.91
2024-04-09T13:47:58.394Z,36.03
2024-04-09T13:50:25.753Z,35.74
2024-04-09T13:52:54.048Z,35.74
2024-04-09T13:55:22.430Z,35.42
2024-04-09T13:57:49.733Z,35.39
2024-04-09T14:00:17.556Z,35.57
2024-04-09T14:02:45.375Z,35.52
2024-04-09T14:05:13.003Z,35.65
2024-04-09T14:07:40.781Z,35.99
2024-04-09T14:10:08.456Z,36.41
2024-04-09T14:12:35.663Z,36.66
2024-04-09T14:15:02.846Z,36.72
2024-04-09T14:17:37.139Z,36.75
2024-04-09T14:20:10.329Z,36.92
2024-04-09T14:22:38.081Z,37.01
2024-04-09T14:25:10.069Z,36.90
2024-04-09T14:27:37.495Z,36.64
2024-04-09T14:30:09.697Z,36.77
2024-04-09T14:32:37.045Z,36.97
2024-04-09T14:35:04.813Z,37.07
2024-04-09T14:37:32.075Z,37.34
2024-04-09T14:39:59.167Z,37.40
2024-04-09T14:42:26.210Z,37.45
2024-04-09T14:44:53.347Z,37.56
2024-04-09T14:47:20.461Z,37.55
2024-04-09T14:49:47.821Z,37.49
2024-04-09T14:52:15.378Z,37.42
2024-04-09T14:54:42.758Z,37.37
2024-04-09T14:57:09.845Z,37.43
2024-04-09T14:59:38.270Z,37.56
2024-04-09T15:02:05.453Z,37.56
2024-04-09T15:04:32.611Z,37.58
2024-04-09T15:07:01.036Z,37.53
2024-04-09T15:09:28.090Z,37.54
2024-04-09T15:11:55.276Z,37.67
2024-04-09T15:14:22.459Z,37.80
2024-04-09T15:16:50.065Z,37.84
2024-04-09T15:19:17.201Z,37.76
2024-04-09T15:21:44.365Z,37.45
2024-04-09T15:24:13.578Z,37.51
2024-04-09T15:26:40.885Z,37.74
2024-04-09T15:29:08.788Z,37.95
2024-04-09T15:31:36.589Z,38.22
2024-04-09T15:34:03.833Z,38.74
2024-04-09T15:36:32.431Z,39.63
2024-04-09T15:38:59.998Z,41.09
2024-04-09T15:41:28.412Z,42.62
2024-04-09T15:43:55.561Z,43.75
2024-04-09T15:46:23.371Z,44.87
2024-04-09T15:48:50.989Z,45.61
2024-04-09T15:51:18.465Z,45.25
2024-04-09T15:53:48.862Z,44.13
2024-04-09T15:56:16.742Z,42.72
2024-04-09T15:58:44.181Z,41.56
2024-04-09T16:01:12.358Z,40.99
2024-04-09T16:03:44.462Z,40.98
2024-04-09T16:06:11.912Z,41.49
2024-04-09T16:08:39.414Z,41.82
2024-04-09T16:11:08.129Z,42.12
2024-04-09T16:13:35.232Z,42.21
2024-04-09T16:16:07.303Z,41.99
2024-04-09T16:18:35.459Z,41.48
2024-04-09T16:21:04.589Z,40.32
2024-04-09T16:23:33.926Z,39.33
2024-04-09T16:26:06.410Z,38.21
2024-04-09T16:28:33.676Z,37.11
2024-04-09T16:31:02.686Z,36.16
2024-04-09T16:33:30.901Z,35.33
2024-04-09T16:35:58.998Z,34.78
2024-04-09T16:38:27.675Z,34.47
2024-04-09T16:40:56.163Z,34.22
2024-04-09T16:43:23.242Z,33.65
2024-04-09T16:45:50.473Z,33.04
2024-04-09T16:48:17.748Z,32.40
2024-04-09T16:50:46.837Z,31.71
2024-04-09T16:53:14.925Z,31.07
2024-04-09T16:55:42.115Z,30.46
2024-04-09T16:58:09.534Z,29.95
2024-04-09T17:00:37.082Z,29.50
2024-04-09T17:03:05.130Z,29.06
2024-04-09T17:05:32.788Z,28.68
2024-04-09T17:08:00.225Z,28.27
2024-04-09T17:10:27.344Z,27.72
2024-04-09T17:12:54.516Z,27.17
2024-04-09T17:15:21.591Z,26.90
2024-04-09T17:17:48.914Z,26.71
2024-04-09T17:20:16.240Z,26.47
2024-04-09T17:22:44.489Z,26.28
2024-04-09T17:25:11.987Z,26.08
2024-04-09T17:27:40.861Z,25.82
2024-04-09T17:30:10.788Z,25.43
2024-04-09T17:32:39.322Z,25.27
2024-04-09T17:35:12.307Z,24.95
2024-04-09T17:37:39.795Z,24.83
2024-04-09T17:40:10.578Z,24.72
2024-04-09T17:42:38.537Z,24.61
2024-04-09T17:45:06.711Z,24.49
2024-04-09T17:47:33.949Z,24.37
2024-04-09T17:50:01.831Z,24.27
2024-04-09T17:52:28.993Z,24.21
2024-04-09T17:54:56.075Z,24.13
2024-04-09T17:57:23.135Z,24.05
2024-04-09T17:59:50.275Z,23.99
2024-04-09T18:02:17.377Z,23.87
2024-04-09T18:04:45.532Z,23.76
2024-04-09T18:07:12.639Z,23.69
2024-04-09T18:09:39.725Z,23.58
2024-04-09T18:12:11.910Z,23.48
2024-04-09T18:14:39.614Z,23.38
2024-04-09T18:17:08.981Z,23.32
2024-04-09T18:19:36.195Z,23.14
2024-04-09T18:22:07.031Z,22.94
2024-04-09T18:24:35.434Z,22.81
2024-04-09T18:27:02.592Z,22.77
2024-04-09T18:29:30.142Z,22.69
2024-04-09T18:31:57.336Z,22.59
2024-04-09T18:34:24.915Z,22.46
2024-04-09T18:36:52.042Z,22.41
2024-04-09T18:39:19.117Z,22.36
2024-04-09T18:41:46.221Z,22.26
2024-04-09T18:44:13.775Z,22.14
2024-04-09T18:46:40.943Z,21.93
2024-04-09T18:49:08.143Z,21.75
2024-04-09T18:51:35.459Z,21.59
2024-04-09T18:54:02.525Z,21.56
2024-04-09T18:56:30.889Z,21.38
2024-04-09T18:58:58.831Z,21.27
2024-04-09T19:01:26.297Z,21.19
2024-04-09T19:03:53.690Z,21.14
2024-04-09T19:06:21.307Z,21.05
2024-04-09T19:08:49.924Z,21.00
2024-04-09T19:11:17.366Z,20.95
2024-04-09T19:13:45.115Z,20.95
2024-04-09T19:16:12.267Z,20.78
2024-04-09T19:18:39.391Z,20.73
2024-04-09T19:21:08.344Z,20.53
2024-04-09T19:23:35.671Z,20.46
2024-04-09T19:26:05.630Z,20.34
2024-04-09T19:28:32.882Z,20.26
2024-04-09T19:31:00.386Z,20.23
2024-04-09T19:33:28.433Z,20.21
2024-04-09T19:35:55.607Z,20.18
2024-04-09T19:38:22.778Z,20.15
2024-04-09T19:40:49.931Z,20.05
2024-04-09T19:43:32.848Z,20.03
2024-04-09T19:46:05.607Z,19.96
2024-04-09T19:48:32.785Z,19.94
2024-04-09T19:50:59.922Z,19.89
2024-04-09T19:53:35.555Z,19.79
2024-04-09T19:56:13.256Z,19.61
2024-04-09T19:58:40.391Z,19.58
2024-04-09T20:01:08.822Z,19.45
2024-04-09T20:03:36.169Z,19.26
2024-04-09T20:06:05.552Z,19.12
2024-04-09T20:08:32.776Z,19.11
2024-04-09T20:11:02.166Z,19.18
2024-04-09T20:13:29.496Z,19.06
2024-04-09T20:15:56.842Z,18.98
2024-04-09T20:18:26.673Z,18.97
2024-04-09T20:20:53.895Z,18.99
2024-04-09T20:23:21.211Z,18.99
2024-04-09T20:25:58.586Z,18.99
2024-04-09T20:28:25.929Z,18.97
2024-04-09T20:30:54.153Z,18.95
2024-04-09T20:33:21.540Z,18.83
2024-04-09T20:35:48.899Z,18.72
2024-04-09T20:38:16.976Z,18.56
2024-04-09T20:40:44.778Z,18.32
2024-04-09T20:43:11.815Z,18.10
2024-04-09T20:45:40.091Z,17.86
2024-04-09T20:48:07.680Z,17.62
2024-04-09T20:50:34.953Z,17.40
2024-04-09T20:53:02.096Z,17.13
2024-04-09T20:55:29.176Z,17.05
2024-04-09T20:57:56.214Z,16.97
2024-04-09T21:00:23.314Z,16.90
2024-04-09T21:02:50.411Z,16.87
2024-04-09T21:05:17.573Z,16.88
2024-04-09T21:07:44.683Z,16.94
2024-04-09T21:10:17.788Z,17.00
2024-04-09T21:12:45.990Z,17.05
2024-04-09T21:15:15.668Z,17.06
2024-04-09T21:17:43.286Z,16.89
2024-04-09T21:20:10.715Z,16.77
2024-04-09T21:22:37.881Z,16.64
2024-04-09T21:25:05.712Z,16.58
2024-04-09T21:27:32.835Z,16.55
2024-04-09T21:30:00.817Z,16.50
2024-04-09T21:32:28.079Z,16.47
2024-04-09T21:34:56.925Z,16.46
2024-04-09T21:37:24.086Z,16.39
2024-04-09T21:39:51.175Z,16.31
2024-04-09T21:42:18.323Z,16.24
2024-04-09T21:44:45.387Z,16.19
2024-04-09T21:47:12.556Z,16.19
2024-04-09T21:49:39.800Z,16.24
2024-04-09T21:52:07.060Z,16.11
2024-04-09T21:54:36.691Z,15.97
2024-04-09T21:57:05.122Z,15.94
2024-04-09T21:59:32.283Z,15.92
2024-04-09T22:01:59.401Z,15.80
2024-04-09T22:04:26.635Z,15.70
2024-04-09T22:06:54.224Z,15.60
2024-04-09T22:09:24.317Z,15.55
2024-04-09T22:11:51.620Z,15.50
2024-04-09T22:14:19.020Z,15.47
2024-04-09T22:16:47.158Z,15.42
2024-04-09T22:19:15.102Z,15.34
2024-04-09T22:21:42.842Z,15.23
2024-04-09T22:24:10.223Z,15.08
2024-04-09T22:26:37.658Z,14.94
2024-04-09T22:29:04.845Z,14.89
2024-04-09T22:31:31.904Z,14.84
2024-04-09T22:33:59.048Z,14.70
2024-04-09T22:36:26.227Z,14.61
2024-04-09T22:38:53.316Z,14.51
2024-04-09T22:41:20.426Z,14.42
2024-04-09T22:43:47.711Z,14.45
2024-04-09T22:46:14.833Z,14.44
2024-04-09T22:48:42.079Z,14.42
2024-04-09T22:51:09.494Z,14.40
2024-04-09T22:53:39.152Z,14.42
2024-04-09T22:56:06.773Z,14.36
2024-04-09T22:58:34.027Z,14.25
2024-04-09T23:01:08.507Z,14.20
2024-04-09T23:05:13.901Z,14.06
2024-04-09T23:07:41.337Z,14.03
2024-04-09T23:10:09.701Z,14.02
2024-04-09T23:12:37.004Z,14.03
2024-04-09T23:15:04.669Z,13.97
2024-04-09T23:17:32.037Z,13.89
2024-04-09T23:19:59.658Z,13.81
2024-04-09T23:22:27.029Z,13.73
2024-04-09T23:24:54.473Z,13.63
2024-04-09T23:27:21.808Z,13.54
2024-04-09T23:29:49.880Z,13.50
2024-04-09T23:32:17.440Z,13.48
2024-04-09T23:34:44.915Z,13.46
2024-04-09T23:37:12.193Z,13.41
2024-04-09T23:39:39.418Z,13.34
2024-04-09T23:42:06.481Z,13.27
2024-04-09T23:44:37.177Z,13.25
2024-04-09T23:47:04.844Z,13.26
2024-04-09T23:49:32.178Z,13.25
2024-04-09T23:51:59.274Z,13.22
2024-04-09T23:54:26.379Z,13.18
2024-04-09T23:56:53.676Z,13.15
2024-04-09T23:59:20.833Z,13.13
